Morales, Texas
Current Conditions -  °F | °C
As of 11:28 AM on Thursday 18 Dec 2014 (Local Time) from KVCT Reporting Station
Haze Haze  
Wind Chill: 64°   Ceiling: 300
Heat Index: 64°   Visibility: 3mi
Dew Point: 62°   Wind: 7mph
Humidity: 93%   Direction: 30°NNE
Pressure: 30.1"   Gusts: NA
Location:  29.0129°N, 96.6883°W
Report Text: KVCT 181728Z 03006KT 3SM BR OVC003 18/17 A3010 RMK AO2 RAB1654E06 P0000 T01780167
Loading
Personal Weather Stations






























Interactive Weather Map New forecast layout! Learn more

10-Day Weather Forecast

Advertisements
Track Severe Weather on mobile